Potlatch, Idaho
Current Conditions -  °F | °C
As of 6:53 AM on Thursday 30 Oct 2014 (Local Time) from KPUW Reporting Station
Overcast Overcast  
Wind Chill: 50°   Ceiling: 8000
Heat Index: 50°   Visibility: 10mi
Dew Point: 41°   Wind: 15mph
Humidity: 71%   Direction: 100°E
Pressure: 30.11"   Gusts: NA
Location:  46.92°N, 116.9°W
Report Text: KPUW 301353Z AUTO 10013KT 10SM BKN080 OVC095 10/05 A3011 RMK AO2 SLP200 T01000050
Loading
Personal Weather Stations






























Interactive Weather Map
Tropical Storm Tracking
New forecast layout! Learn more

10-Day Weather Forecast

Advertisements
Track Severe Weather on mobile